Time;durP1;ratioP1;P1;durP2;ratioP2;P2;SDS_P1;SDS_P2;PMS_P1;PMS_P2;Temp;Humidity;BMP_temperature;BMP_pressure;BME280_temperature;BME280_humidity;BME280_pressure;Samples;Min_cycle;Max_cycle;Signal;HPM_P1;HPM_P2
2022/03/21 00:01:04;;;;;;;57.20;41.65;;;6.80;99.90;;;;;;5112547;28;20046;-59
2022/03/21 00:03:30;;;;;;;59.47;41.83;;;6.80;99.90;;;;;;5112715;28;20428;-59
2022/03/21 00:06:00;;;;;;;54.22;40.38;;;6.80;99.90;;;;;;5112572;28;20047;-59
2022/03/21 00:08:26;;;;;;;58.67;40.65;;;6.90;99.90;;;;;;5112577;28;20394;-58
2022/03/21 00:10:53;;;;;;;58.03;41.10;;;6.90;99.90;;;;;;5112531;28;20545;-59
2022/03/21 00:13:19;;;;;;;54.58;39.67;;;6.80;99.90;;;;;;5112502;28;20035;-59
2022/03/21 00:15:46;;;;;;;53.40;39.42;;;6.90;99.90;;;;;;5112306;28;20046;-58
2022/03/21 00:18:13;;;;;;;55.00;39.25;;;6.90;99.90;;;;;;5112397;28;20031;-59
2022/03/21 00:20:41;;;;;;;53.95;39.10;;;6.90;99.90;;;;;;5111927;28;20036;-58
2022/03/21 00:23:07;;;;;;;52.17;37.47;;;6.90;99.90;;;;;;5112144;28;20039;-58
2022/03/21 00:25:32;;;;;;;54.78;40.20;;;6.90;99.90;;;;;;5112478;28;20031;-59
2022/03/21 00:27:58;;;;;;;51.30;36.92;;;6.80;99.90;;;;;;5112416;28;20071;-58
2022/03/21 00:30:25;;;;;;;51.83;37.42;;;6.90;99.90;;;;;;5112463;28;20036;-59
2022/03/21 00:32:51;;;;;;;52.10;37.40;;;6.80;99.90;;;;;;5112211;28;20498;-59
2022/03/21 00:35:17;;;;;;;54.13;38.38;;;6.80;99.90;;;;;;5112463;28;20150;-58
2022/03/21 00:37:45;;;;;;;53.15;37.22;;;6.80;99.90;;;;;;5111924;28;20042;-58
2022/03/21 00:40:12;;;;;;;49.60;37.00;;;6.80;99.90;;;;;;5112517;28;20048;-59
2022/03/21 00:42:40;;;;;;;52.83;37.30;;;6.80;99.90;;;;;;5112172;28;20842;-59
2022/03/21 00:45:09;;;;;;;50.22;36.05;;;6.80;99.90;;;;;;5112435;28;20126;-59
2022/03/21 00:47:35;;;;;;;52.17;37.97;;;6.70;99.90;;;;;;5112174;28;20119;-58
2022/03/21 00:50:02;;;;;;;52.53;36.33;;;6.70;99.90;;;;;;5112020;28;20096;-58
2022/03/21 00:52:29;;;;;;;48.42;35.10;;;6.70;99.90;;;;;;5111955;28;20086;-59
2022/03/21 00:54:55;;;;;;;52.17;36.50;;;6.70;99.90;;;;;;5112157;28;20427;-58
2022/03/21 00:57:20;;;;;;;48.58;35.38;;;6.70;99.90;;;;;;5112394;28;20125;-59
2022/03/21 00:59:46;;;;;;;48.83;34.63;;;6.70;99.90;;;;;;5110787;28;20619;-59
2022/03/21 01:02:12;;;;;;;51.25;35.85;;;6.60;99.90;;;;;;5112083;28;20393;-59
2022/03/21 01:04:39;;;;;;;45.17;33.92;;;6.60;99.90;;;;;;5111732;28;20035;-58
2022/03/21 01:07:04;;;;;;;50.10;35.03;;;6.60;99.90;;;;;;5111808;28;20039;-59
2022/03/21 01:09:31;;;;;;;51.67;34.85;;;6.60;99.90;;;;;;5112093;28;20044;-58
2022/03/21 01:11:57;;;;;;;47.63;33.70;;;6.60;99.90;;;;;;5111720;28;20401;-59
2022/03/21 01:14:22;;;;;;;47.38;32.28;;;6.60;99.90;;;;;;5111859;28;20036;-58
2022/03/21 01:16:50;;;;;;;45.10;33.28;;;6.50;99.90;;;;;;5111648;28;20435;-59
2022/03/21 01:19:15;;;;;;;47.10;32.03;;;6.50;99.90;;;;;;5111980;28;20461;-59
2022/03/21 01:21:41;;;;;;;39.90;30.20;;;6.50;99.90;;;;;;5112046;28;20036;-59
2022/03/21 01:24:06;;;;;;;39.35;29.23;;;6.50;99.90;;;;;;5111875;28;20119;-59
2022/03/21 01:26:32;;;;;;;39.65;28.75;;;6.50;99.90;;;;;;5111749;28;20040;-59
2022/03/21 01:28:58;;;;;;;40.85;28.88;;;6.50;99.90;;;;;;5111693;28;20042;-59
2022/03/21 01:31:23;;;;;;;39.45;28.00;;;6.50;99.90;;;;;;5111699;28;20054;-59
2022/03/21 01:33:49;;;;;;;40.88;27.25;;;6.50;99.90;;;;;;5113448;28;20101;-59
2022/03/21 01:36:15;;;;;;;39.65;28.63;;;6.50;99.90;;;;;;5115390;28;20515;-59
2022/03/21 01:38:40;;;;;;;41.25;28.35;;;6.50;99.90;;;;;;5115596;28;20063;-59
2022/03/21 01:41:06;;;;;;;38.78;28.42;;;6.50;99.90;;;;;;5115216;28;20477;-59
2022/03/21 01:43:32;;;;;;;39.55;26.52;;;6.40;99.90;;;;;;5115496;28;20052;-59
2022/03/21 01:45:57;;;;;;;36.15;26.30;;;6.40;99.90;;;;;;5115358;28;20044;-59
2022/03/21 01:48:23;;;;;;;35.88;25.80;;;6.40;99.90;;;;;;5115099;28;20466;-59
2022/03/21 01:50:48;;;;;;;37.55;27.45;;;6.30;99.90;;;;;;5115109;28;20485;-59
2022/03/21 01:55:59;;;;;;;32.80;24.52;;;6.30;99.90;;;;;;5115192;28;20469;-59
2022/03/21 01:58:25;;;;;;;37.80;25.33;;;6.20;99.90;;;;;;5115029;27;20027;-58
2022/03/21 02:00:52;;;;;;;38.13;26.17;;;6.30;99.90;;;;;;5114939;28;20105;-59
2022/03/21 02:03:22;;;;;;;34.63;23.45;;;6.20;99.90;;;;;;5114855;28;20047;-59
2022/03/21 02:05:47;;;;;;;36.20;24.23;;;6.20;99.90;;;;;;5114877;28;20470;-59
2022/03/21 02:08:14;;;;;;;34.90;24.23;;;6.10;99.90;;;;;;5113146;28;20073;-59
2022/03/21 02:10:43;;;;;;;34.45;23.20;;;6.10;99.90;;;;;;5114838;28;20131;-59
2022/03/21 02:13:10;;;;;;;37.40;22.55;;;6.10;99.90;;;;;;5114703;28;20042;-59
2022/03/21 02:15:36;;;;;;;32.58;21.52;;;6.00;99.90;;;;;;5114535;28;20479;-59
2022/03/21 02:18:04;;;;;;;35.05;21.95;;;6.00;99.90;;;;;;5114740;28;20101;-58
2022/03/21 02:20:32;;;;;;;29.15;20.83;;;6.00;99.90;;;;;;5114395;28;20040;-59
2022/03/21 02:23:08;;;;;;;28.65;20.45;;;5.90;99.90;;;;;;5114635;28;20031;-59
2022/03/21 02:25:43;;;;;;;31.90;21.17;;;5.90;99.90;;;;;;5114441;27;20047;-59
2022/03/21 02:28:12;;;;;;;31.27;21.15;;;5.90;99.90;;;;;;5114932;28;20067;-58
2022/03/21 02:30:40;;;;;;;30.23;22.20;;;5.90;99.90;;;;;;5114346;27;20067;-59
2022/03/21 02:33:06;;;;;;;31.98;20.40;;;5.90;99.90;;;;;;5114401;28;20041;-60
2022/03/21 02:35:33;;;;;;;33.35;20.73;;;5.90;99.90;;;;;;5114244;28;20036;-58
2022/03/21 02:37:59;;;;;;;33.05;21.20;;;5.80;99.90;;;;;;5114226;28;20110;-59
2022/03/21 02:40:26;;;;;;;30.90;19.83;;;5.80;99.90;;;;;;5114147;28;20039;-58
2022/03/21 02:42:52;;;;;;;28.55;19.27;;;5.80;99.90;;;;;;5113847;28;20060;-59
2022/03/21 02:45:18;;;;;;;28.08;19.10;;;5.80;99.90;;;;;;5113718;28;20035;-59
2022/03/21 02:47:43;;;;;;;29.30;20.25;;;5.80;99.90;;;;;;5114186;28;20043;-59
2022/03/21 02:50:15;;;;;;;27.80;18.70;;;5.80;99.90;;;;;;5114060;28;20043;-59
2022/03/21 02:52:42;;;;;;;32.53;19.55;;;5.80;99.90;;;;;;5113926;28;20036;-59
2022/03/21 02:55:08;;;;;;;30.05;19.00;;;5.70;99.90;;;;;;5113807;28;20481;-59
2022/03/21 02:57:33;;;;;;;29.02;19.00;;;5.70;99.90;;;;;;5095454;28;20043;-59
2022/03/21 02:59:59;;;;;;;27.20;18.77;;;5.60;99.90;;;;;;5113746;28;20379;-59
2022/03/21 03:02:25;;;;;;;24.58;17.33;;;5.60;99.90;;;;;;5112320;28;20039;-59
2022/03/21 03:04:52;;;;;;;28.48;19.08;;;5.60;99.90;;;;;;5113905;28;20076;-59
2022/03/21 03:07:18;;;;;;;23.00;16.48;;;5.50;99.90;;;;;;5113687;28;20090;-59
2022/03/21 03:09:44;;;;;;;29.08;18.75;;;5.50;99.90;;;;;;5113520;28;20419;-59
2022/03/21 03:12:09;;;;;;;28.77;19.40;;;5.50;99.90;;;;;;5113777;28;20484;-59
2022/03/21 03:14:35;;;;;;;29.30;18.85;;;5.50;99.90;;;;;;5113517;28;20081;-59
2022/03/21 03:17:04;;;;;;;29.88;19.40;;;5.40;99.90;;;;;;5113491;28;20039;-59
2022/03/21 03:19:29;;;;;;;31.02;18.35;;;5.40;99.90;;;;;;5113418;28;20042;-59
2022/03/21 03:21:56;;;;;;;30.30;18.25;;;5.40;99.90;;;;;;5113363;28;20035;-59
2022/03/21 03:24:25;;;;;;;29.73;17.52;;;5.40;99.90;;;;;;5113129;28;20478;-59
2022/03/21 03:26:50;;;;;;;;;;;5.40;99.90;;;;;;5113935;28;20435;-59
2022/03/21 03:29:16;;;;;;;25.48;16.83;;;5.30;99.90;;;;;;5112992;28;19964;-59
2022/03/21 03:31:42;;;;;;;31.80;17.83;;;5.30;99.90;;;;;;5113411;28;20051;-59
2022/03/21 03:34:09;;;;;;;28.60;17.02;;;5.30;99.90;;;;;;5113495;28;20110;-59
2022/03/21 03:36:35;;;;;;;28.17;17.73;;;5.30;99.90;;;;;;5113449;28;20150;-59
2022/03/21 03:39:02;;;;;;;28.73;18.48;;;5.30;99.90;;;;;;5111911;28;20050;-59
2022/03/21 03:41:27;;;;;;;27.08;16.92;;;5.30;99.90;;;;;;5112017;28;20042;-59
2022/03/21 03:43:53;;;;;;;28.27;17.55;;;5.20;99.90;;;;;;5112933;28;20397;-59
2022/03/21 03:46:19;;;;;;;26.13;17.73;;;5.20;99.90;;;;;;5112949;28;20036;-59
2022/03/21 03:48:46;;;;;;;31.83;16.90;;;5.20;99.90;;;;;;5112779;28;20394;-59
2022/03/21 03:51:13;;;;;;;26.60;18.17;;;5.20;99.90;;;;;;5112838;28;20122;-58
2022/03/21 03:53:40;;;;;;;24.40;18.15;;;5.20;99.90;;;;;;5112692;28;20050;-59
2022/03/21 03:56:06;;;;;;;30.77;18.27;;;5.30;99.90;;;;;;5112009;28;20398;-59
2022/03/21 03:58:36;;;;;;;26.88;17.88;;;5.30;99.90;;;;;;5112896;28;20027;-59
2022/03/21 04:01:04;;;;;;;23.60;17.13;;;5.20;99.90;;;;;;5112591;28;20043;-59
2022/03/21 04:03:46;;;;;;;26.02;17.75;;;5.20;99.90;;;;;;5112837;28;20088;-59
2022/03/21 04:06:16;;;;;;;29.02;18.23;;;5.20;99.90;;;;;;5112524;28;20039;-59
2022/03/21 04:08:43;;;;;;;30.13;16.75;;;5.10;99.90;;;;;;5112764;28;20075;-59
2022/03/21 04:11:09;;;;;;;25.38;16.15;;;5.20;99.90;;;;;;5112541;28;20093;-59
2022/03/21 04:13:34;;;;;;;29.85;17.80;;;5.20;99.90;;;;;;5112500;28;20481;-59
2022/03/21 04:16:00;;;;;;;27.25;17.50;;;5.10;99.90;;;;;;5112200;28;20043;-59
2022/03/21 04:18:26;;;;;;;25.05;16.90;;;5.20;99.90;;;;;;5112420;28;20039;-59
2022/03/21 04:20:53;;;;;;;23.63;16.42;;;5.20;99.90;;;;;;5112359;28;20036;-59
2022/03/21 04:23:19;;;;;;;24.63;16.98;;;5.10;99.90;;;;;;5112408;28;20035;-59
2022/03/21 04:25:45;;;;;;;28.98;16.77;;;5.10;99.90;;;;;;5112394;28;20035;-59
2022/03/21 04:28:12;;;;;;;28.58;16.60;;;5.10;99.90;;;;;;5112269;28;20493;-59
2022/03/21 04:30:38;;;;;;;25.48;16.42;;;5.00;99.90;;;;;;5112341;28;20036;-59
2022/03/21 04:33:04;;;;;;;25.05;16.83;;;5.00;99.90;;;;;;5112230;28;20036;-59
2022/03/21 04:35:30;;;;;;;23.15;16.35;;;5.00;99.90;;;;;;5112165;28;20046;-60
2022/03/21 04:37:57;;;;;;;25.38;17.05;;;5.00;99.90;;;;;;5112422;28;20047;-59
2022/03/21 04:40:23;;;;;;;24.85;16.73;;;5.00;99.90;;;;;;5111174;28;20039;-59
2022/03/21 04:42:49;;;;;;;30.38;17.60;;;5.00;99.90;;;;;;5112080;28;20052;-59
2022/03/21 04:45:16;;;;;;;27.75;17.90;;;4.90;99.90;;;;;;5112293;28;20040;-60
2022/03/21 04:47:43;;;;;;;28.50;17.90;;;4.90;99.90;;;;;;5112009;28;20043;-59
2022/03/21 04:50:09;;;;;;;28.40;17.75;;;4.90;99.90;;;;;;5112097;28;20083;-59
2022/03/21 04:52:38;;;;;;;26.90;17.05;;;4.90;99.90;;;;;;5112220;28;20119;-60
2022/03/21 04:55:07;;;;;;;;;;;4.90;99.90;;;;;;5112550;28;20043;-59
2022/03/21 04:57:33;;;;;;;30.17;17.35;;;4.80;99.90;;;;;;5111943;28;19967;-59
2022/03/21 04:59:59;;;;;;;30.45;17.45;;;4.90;99.90;;;;;;5112055;28;20032;-59
2022/03/21 05:02:25;;;;;;;26.63;16.95;;;4.80;99.90;;;;;;5110740;28;20035;-59
2022/03/21 05:04:51;;;;;;;26.20;17.38;;;4.90;99.90;;;;;;5112098;28;20439;-59
2022/03/21 05:07:17;;;;;;;27.70;17.63;;;4.90;99.90;;;;;;5113179;28;20114;-59
2022/03/21 05:09:44;;;;;;;26.95;17.38;;;4.80;99.90;;;;;;5114894;28;20079;-59
2022/03/21 05:12:11;;;;;;;28.65;18.10;;;4.90;99.90;;;;;;5115983;27;20082;-59
2022/03/21 05:14:37;;;;;;;30.15;18.10;;;4.80;99.90;;;;;;5114282;28;20110;-60
2022/03/21 05:17:05;;;;;;;24.17;16.92;;;4.80;99.90;;;;;;5114508;28;20060;-59
2022/03/21 05:19:34;;;;;;;26.70;18.38;;;4.80;99.90;;;;;;5114871;28;20035;-59
2022/03/21 05:22:05;;;;;;;25.20;16.63;;;4.80;99.90;;;;;;5115786;28;20097;-59
2022/03/21 05:32:44;;;;;;;29.75;17.40;;;4.70;99.90;;;;;;5115625;28;20044;-59
2022/03/21 05:37:54;;;;;;;26.45;15.68;;;4.60;99.90;;;;;;5115336;28;20054;-60
2022/03/21 05:40:31;;;;;;;30.42;17.38;;;4.60;99.90;;;;;;5115468;28;20040;-59
2022/03/21 05:42:57;;;;;;;27.30;16.38;;;4.60;99.90;;;;;;5115269;28;20522;-59
2022/03/21 05:45:23;;;;;;;31.20;17.67;;;4.50;99.90;;;;;;5115525;28;20448;-59
2022/03/21 05:50:37;;;;;;;25.88;17.75;;;4.50;99.90;;;;;;5115490;28;20044;-60
2022/03/21 05:53:05;;;;;;;26.65;16.83;;;4.50;99.90;;;;;;5115486;28;20117;-60
2022/03/21 05:55:31;;;;;;;29.35;16.75;;;4.40;99.90;;;;;;5115423;28;20126;-60
2022/03/21 05:57:58;;;;;;;31.65;17.60;;;4.40;99.90;;;;;;5115052;28;20090;-60
2022/03/21 06:00:24;;;;;;;24.92;16.27;;;4.40;99.90;;;;;;5114998;28;20385;-59
2022/03/21 06:02:51;;;;;;;23.40;15.65;;;4.40;99.90;;;;;;5114988;28;20042;-60
2022/03/21 06:05:17;;;;;;;24.63;16.25;;;4.50;99.90;;;;;;5115044;28;20043;-60
2022/03/21 06:07:43;;;;;;;30.40;17.33;;;4.50;99.90;;;;;;5114954;28;20043;-60
2022/03/21 06:10:09;;;;;;;28.10;17.42;;;4.50;99.90;;;;;;5114803;28;20447;-60
2022/03/21 06:12:34;;;;;;;25.00;16.88;;;4.50;99.90;;;;;;5114772;28;20048;-59
2022/03/21 06:15:00;;;;;;;22.98;16.50;;;4.60;99.90;;;;;;5114692;28;20042;-59
2022/03/21 06:17:27;;;;;;;23.55;15.73;;;4.80;99.90;;;;;;5115024;28;20043;-60
2022/03/21 06:19:53;;;;;;;22.70;15.32;;;5.00;99.90;;;;;;5114067;28;20404;-59
2022/03/21 06:22:18;;;;;;;23.20;16.05;;;5.10;99.90;;;;;;5114551;28;20035;-59
2022/03/21 06:24:44;;;;;;;26.05;17.30;;;5.20;99.90;;;;;;5114460;28;20035;-61
2022/03/21 06:27:09;;;;;;;23.80;16.90;;;5.40;99.90;;;;;;5114581;28;20044;-60
2022/03/21 06:29:35;;;;;;;28.65;17.83;;;5.50;99.90;;;;;;5114426;28;20397;-60
2022/03/21 06:32:01;;;;;;;27.63;17.33;;;5.60;99.90;;;;;;5114131;28;20043;-60
2022/03/21 06:34:26;;;;;;;33.00;19.52;;;5.80;99.90;;;;;;5114450;28;20043;-60
2022/03/21 06:36:52;;;;;;;35.63;19.98;;;5.80;99.90;;;;;;5114376;28;20075;-60
2022/03/21 06:39:18;;;;;;;33.40;20.75;;;5.90;99.90;;;;;;5114348;28;20047;-59
2022/03/21 06:41:44;;;;;;;29.25;19.42;;;5.90;99.90;;;;;;5114357;28;20031;-60
2022/03/21 06:44:10;;;;;;;30.00;19.35;;;6.00;99.90;;;;;;5114151;28;20124;-60
2022/03/21 06:46:37;;;;;;;30.10;20.20;;;6.00;99.90;;;;;;5114032;28;20039;-60
2022/03/21 06:49:03;;;;;;;31.27;20.10;;;6.20;99.90;;;;;;5113997;28;20542;-60
2022/03/21 06:51:28;;;;;;;32.25;19.98;;;6.20;99.90;;;;;;5114081;28;20072;-60
2022/03/21 06:53:54;;;;;;;32.63;21.48;;;6.30;99.90;;;;;;5114031;28;20043;-60
2022/03/21 06:56:20;;;;;;;33.13;20.92;;;6.40;99.90;;;;;;5113989;28;20096;-60
2022/03/21 06:58:45;;;;;;;32.42;22.25;;;6.50;99.90;;;;;;5113844;28;20381;-60
2022/03/21 07:01:11;;;;;;;32.38;22.55;;;6.60;99.90;;;;;;5113651;28;20032;-59
2022/03/21 07:03:37;;;;;;;34.42;23.40;;;6.60;99.90;;;;;;5114058;28;20046;-59
2022/03/21 07:06:03;;;;;;;31.08;22.80;;;6.70;99.90;;;;;;5102359;28;20044;-59
2022/03/21 07:08:29;;;;;;;38.05;23.20;;;6.90;99.90;;;;;;5090500;28;20040;-60
2022/03/21 07:10:54;;;;;;;33.97;24.77;;;7.00;99.90;;;;;;5090652;28;20071;-59
2022/03/21 07:13:21;;;;;;;41.75;25.85;;;7.20;99.90;;;;;;5092711;28;20070;-59
2022/03/21 07:15:47;;;;;;;35.05;24.52;;;7.40;99.90;;;;;;5091898;28;20036;-59
2022/03/21 07:18:12;;;;;;;33.03;23.52;;;7.60;99.90;;;;;;5093257;28;20036;-59
2022/03/21 07:20:42;;;;;;;32.00;23.83;;;7.80;99.90;;;;;;5092994;28;20036;-59
2022/03/21 07:23:08;;;;;;;32.35;22.60;;;8.10;99.90;;;;;;5093039;28;20032;-59
2022/03/21 07:25:34;;;;;;;32.30;21.40;;;8.40;99.90;;;;;;5092934;28;20501;-59
2022/03/21 07:28:00;;;;;;;30.23;19.50;;;8.70;99.90;;;;;;5092859;28;20069;-59
2022/03/21 07:30:26;;;;;;;27.95;20.40;;;8.80;99.90;;;;;;5092867;28;20047;-59
2022/03/21 07:32:52;;;;;;;27.60;19.83;;;9.10;99.90;;;;;;5093034;28;20153;-59
2022/03/21 07:35:17;;;;;;;27.83;18.73;;;9.40;99.90;;;;;;5092861;28;20127;-59
2022/03/21 07:37:47;;;;;;;28.15;20.48;;;9.70;99.90;;;;;;5092981;28;20036;-59
2022/03/21 07:40:13;;;;;;;;;;;9.90;99.90;;;;;;5093209;28;20047;-60
2022/03/21 07:42:40;;;;;;;24.85;18.02;;;9.90;99.90;;;;;;5092597;28;19935;-60
2022/03/21 07:47:52;;;;;;;24.98;16.90;;;10.40;99.90;;;;;;5092640;28;20044;-60
2022/03/21 07:50:19;;;;;;;23.17;17.23;;;10.60;99.90;;;;;;5092763;28;20094;-59
2022/03/21 07:52:46;;;;;;;25.55;17.23;;;10.90;99.90;;;;;;5092376;28;20421;-60
2022/03/21 07:55:12;;;;;;;24.13;16.80;;;11.20;99.90;;;;;;5092418;28;20040;-60
2022/03/21 07:57:37;;;;;;;24.88;16.27;;;11.40;99.90;;;;;;5092467;28;20040;-59
2022/03/21 08:00:05;;;;;;;21.50;15.80;;;11.50;99.90;;;;;;5092425;28;20036;-60
2022/03/21 08:02:30;;;;;;;23.10;16.17;;;11.60;99.90;;;;;;5092341;28;20081;-59
2022/03/21 08:05:01;;;;;;;24.05;16.77;;;11.90;99.90;;;;;;5092195;28;20044;-60
2022/03/21 08:07:27;;;;;;;25.42;16.73;;;12.10;99.90;;;;;;5092264;28;20039;-60
2022/03/21 08:09:53;;;;;;;24.67;15.57;;;12.30;99.90;;;;;;5092154;28;20036;-60
2022/03/21 08:12:19;;;;;;;23.17;15.73;;;12.50;99.90;;;;;;5092308;28;20047;-60
2022/03/21 08:14:45;;;;;;;23.33;15.93;;;12.70;99.90;;;;;;5092167;28;20044;-59
2022/03/21 08:17:11;;;;;;;24.58;16.45;;;12.90;99.90;;;;;;5092151;28;20040;-60
2022/03/21 08:19:37;;;;;;;22.80;16.63;;;13.10;99.90;;;;;;5092045;28;20089;-59
2022/03/21 08:22:07;;;;;;;21.55;15.70;;;13.60;99.90;;;;;;5090311;28;20047;-60
2022/03/21 08:24:35;;;;;;;21.42;15.70;;;13.80;99.90;;;;;;5091914;28;20040;-59
2022/03/21 08:27:02;;;;;;;22.42;16.10;;;13.70;99.90;;;;;;5092180;28;20405;-59
2022/03/21 08:29:28;;;;;;;22.02;16.48;;;14.00;99.90;;;;;;5091877;28;20047;-59
2022/03/21 08:31:54;;;;;;;21.65;16.17;;;14.20;99.90;;;;;;5091736;28;20036;-59
2022/03/21 08:34:19;;;;;;;26.10;16.27;;;14.40;99.90;;;;;;5091874;28;20039;-59
2022/03/21 08:36:45;;;;;;;22.73;16.45;;;14.50;99.90;;;;;;5091666;28;20474;-59
2022/03/21 08:39:11;;;;;;;21.63;16.25;;;14.60;99.90;;;;;;5092020;28;20081;-59
2022/03/21 08:41:37;;;;;;;23.05;17.13;;;14.90;99.90;;;;;;5092495;28;20111;-59
2022/03/21 08:44:04;;;;;;;22.48;15.57;;;14.90;99.90;;;;;;5098128;28;20060;-60
2022/03/21 08:46:30;;;;;;;21.80;15.88;;;15.30;99.90;;;;;;5098532;28;20051;-60
2022/03/21 08:51:40;;;;;;;23.35;16.90;;;15.60;99.90;;;;;;5098273;28;20414;-59
2022/03/21 08:54:07;;;;;;;21.92;16.63;;;15.90;99.90;;;;;;5098606;28;20040;-59
2022/03/21 08:56:33;;;;;;;26.73;16.42;;;15.80;99.90;;;;;;5098438;28;20040;-59
2022/03/21 08:58:59;;;;;;;23.77;17.60;;;16.00;99.90;;;;;;5098281;28;20479;-59
2022/03/21 09:01:25;;;;;;;20.67;15.82;;;16.10;99.90;;;;;;5098459;28;20047;-59
2022/03/21 09:03:51;;;;;;;20.83;16.25;;;16.30;99.90;;;;;;5098320;28;20098;-59
2022/03/21 09:06:20;;;;;;;23.83;16.60;;;16.20;99.90;;;;;;5098629;28;20055;-60
2022/03/21 09:08:49;;;;;;;24.33;17.13;;;16.50;99.90;;;;;;5098432;28;20039;-59
2022/03/21 09:11:17;;;;;;;24.13;16.60;;;16.80;99.90;;;;;;5098300;28;20040;-57
2022/03/21 09:13:44;;;;;;;26.75;17.77;;;16.90;99.90;;;;;;5098397;28;20044;-57
2022/03/21 09:16:11;;;;;;;25.40;16.70;;;16.70;99.90;;;;;;5098036;28;20125;-57
2022/03/21 09:18:37;;;;;;;25.20;17.02;;;17.00;99.90;;;;;;5098216;28;20405;-57
2022/03/21 09:21:02;;;;;;;24.38;16.58;;;17.10;99.90;;;;;;5098119;28;20038;-57
2022/03/21 09:23:28;;;;;;;25.75;17.13;;;17.20;99.90;;;;;;5098285;28;20036;-57
2022/03/21 09:25:53;;;;;;;22.92;17.08;;;17.50;99.90;;;;;;5098444;28;20032;-57
2022/03/21 09:28:19;;;;;;;26.10;17.15;;;17.40;99.40;;;;;;5098519;28;20040;-57
2022/03/21 09:30:45;;;;;;;26.25;17.30;;;17.40;99.10;;;;;;5096496;28;20051;-57
2022/03/21 09:33:10;;;;;;;22.52;16.10;;;17.60;98.50;;;;;;5097899;28;20042;-57
2022/03/21 09:35:37;;;;;;;24.38;17.20;;;17.70;99.30;;;;;;5098114;28;20035;-57
2022/03/21 09:38:03;;;;;;;21.45;16.05;;;17.60;98.40;;;;;;5098181;28;20101;-57
2022/03/21 09:40:29;;;;;;;28.10;18.73;;;17.70;98.00;;;;;;5097979;28;20432;-57
2022/03/21 09:42:56;;;;;;;22.80;16.75;;;18.00;98.50;;;;;;5097977;28;20139;-58
2022/03/21 09:45:21;;;;;;;22.10;17.48;;;17.70;98.30;;;;;;5097972;28;20115;-57
2022/03/21 09:50:35;;;;;;;24.48;18.95;;;17.70;97.40;;;;;;5097956;28;20127;-58
2022/03/21 09:53:01;;;;;;;24.35;18.70;;;17.00;95.90;;;;;;5097530;28;20040;-58
2022/03/21 09:55:27;;;;;;;25.30;18.23;;;17.00;96.90;;;;;;5093743;28;20054;-58
2022/03/21 09:57:52;;;;;;;30.90;19.25;;;16.90;96.90;;;;;;5094623;28;20119;-58
2022/03/21 10:00:18;;;;;;;22.63;18.55;;;16.90;98.20;;;;;;5094553;28;20058;-58
2022/03/21 10:02:44;;;;;;;25.70;17.40;;;16.50;95.20;;;;;;5094631;28;20028;-58
2022/03/21 10:05:31;;;;;;;25.27;17.38;;;16.40;97.70;;;;;;5094783;28;20444;-58
2022/03/21 10:08:18;;;;;;;25.35;17.58;;;16.30;95.70;;;;;;5094316;28;20486;-57
2022/03/21 10:10:51;;;;;;;21.73;17.17;;;16.60;96.10;;;;;;5094275;28;20040;-57
2022/03/21 10:13:18;;;;;;;23.15;17.42;;;16.70;95.80;;;;;;5094557;28;20044;-58
2022/03/21 10:15:43;;;;;;;23.20;17.52;;;16.70;95.40;;;;;;5094519;28;20040;-59
2022/03/21 10:18:11;;;;;;;24.20;17.73;;;16.60;95.40;;;;;;5094292;28;20435;-58
2022/03/21 10:20:38;;;;;;;25.75;18.50;;;16.70;95.40;;;;;;5094440;28;20039;-58
2022/03/21 10:23:24;;;;;;;24.92;16.73;;;16.80;94.00;;;;;;5094045;28;20077;-58
2022/03/21 10:25:50;;;;;;;22.67;16.60;;;16.70;91.90;;;;;;5094383;28;20043;-57
2022/03/21 10:28:36;;;;;;;18.77;14.68;;;16.40;93.20;;;;;;5094133;28;20635;-57
2022/03/21 10:31:04;;;;;;;21.55;16.15;;;16.50;90.50;;;;;;5094020;28;20096;-57
2022/03/21 10:33:30;;;;;;;27.20;16.42;;;16.60;93.20;;;;;;5093913;28;20075;-58
2022/03/21 10:36:02;;;;;;;23.27;15.45;;;16.80;92.70;;;;;;5093976;28;20032;-59
2022/03/21 10:38:33;;;;;;;22.60;16.42;;;16.80;91.30;;;;;;5094039;28;20386;-59
2022/03/21 10:41:06;;;;;;;29.98;17.35;;;16.90;91.40;;;;;;5093825;28;20036;-58
2022/03/21 10:43:32;;;;;;;22.52;16.85;;;17.10;91.30;;;;;;5093669;28;20166;-58
2022/03/21 10:45:58;;;;;;;20.73;16.27;;;17.00;91.60;;;;;;5093679;28;20480;-59
2022/03/21 10:48:29;;;;;;;23.17;16.80;;;17.00;91.30;;;;;;5093841;28;20379;-59
2022/03/21 10:50:57;;;;;;;26.40;16.67;;;16.90;91.00;;;;;;5093877;28;20043;-59
2022/03/21 10:53:28;;;;;;;21.85;15.77;;;16.90;91.30;;;;;;5093995;28;20232;-59
2022/03/21 10:55:57;;;;;;;23.08;17.73;;;17.20;92.20;;;;;;5093515;28;20166;-59
2022/03/21 10:58:40;;;;;;;22.63;16.80;;;17.20;91.60;;;;;;5093815;28;20482;-58
2022/03/21 11:01:14;;;;;;;20.65;16.25;;;17.80;91.90;;;;;;5094364;28;20036;-58
2022/03/21 11:03:41;;;;;;;20.65;15.65;;;18.80;91.20;;;;;;5093770;28;20036;-58
2022/03/21 11:06:11;;;;;;;21.58;16.13;;;19.60;90.90;;;;;;5093538;28;20048;-59
2022/03/21 11:08:37;;;;;;;22.13;16.80;;;20.70;87.90;;;;;;5093766;28;20494;-58
2022/03/21 11:11:04;;;;;;;19.73;15.90;;;20.20;85.70;;;;;;5093697;28;20051;-58
2022/03/21 11:13:31;;;;;;;19.23;15.80;;;20.20;85.20;;;;;;5093749;28;20382;-58
2022/03/21 11:15:57;;;;;;;26.08;15.65;;;20.50;83.10;;;;;;5093470;28;20040;-58
2022/03/21 11:18:26;;;;;;;24.58;16.25;;;21.90;81.20;;;;;;5093903;28;20079;-58
2022/03/21 11:20:52;;;;;;;23.20;17.15;;;21.70;80.50;;;;;;5093393;28;20040;-58
2022/03/21 11:23:21;;;;;;;22.10;15.70;;;22.30;82.10;;;;;;5093262;28;20044;-58
2022/03/21 11:25:57;;;;;;;20.67;15.45;;;23.20;79.40;;;;;;5093384;28;20040;-58
2022/03/21 11:28:48;;;;;;;25.48;16.95;;;23.80;76.60;;;;;;5093559;28;20486;-58
2022/03/21 11:31:31;;;;;;;21.05;16.02;;;23.70;74.50;;;;;;5093201;28;20070;-58
2022/03/21 11:34:00;;;;;;;20.73;16.30;;;24.20;74.80;;;;;;5093096;28;20101;-58
2022/03/21 11:36:25;;;;;;;20.35;16.42;;;24.10;75.00;;;;;;5093568;28;20040;-58
2022/03/21 11:39:00;;;;;;;22.90;16.75;;;24.70;73.80;;;;;;5092811;28;20036;-58
2022/03/21 11:41:26;;;;;;;18.70;16.00;;;24.90;70.20;;;;;;5093037;28;20074;-58
2022/03/21 11:44:04;;;;;;;22.95;16.33;;;24.90;70.50;;;;;;5092531;28;20092;-59
2022/03/21 11:46:32;;;;;;;16.08;14.13;;;24.80;68.40;;;;;;5092881;28;20054;-58
2022/03/21 11:48:59;;;;;;;20.17;15.60;;;24.80;68.20;;;;;;5092805;28;20043;-58
2022/03/21 11:51:26;;;;;;;18.58;15.63;;;24.90;68.30;;;;;;5092920;28;20078;-58
2022/03/21 11:53:54;;;;;;;19.30;15.15;;;25.80;67.40;;;;;;5092883;28;20501;-58
2022/03/21 11:56:43;;;;;;;19.15;15.68;;;25.10;64.70;;;;;;5092735;28;20084;-58
2022/03/21 11:59:32;;;;;;;23.00;14.32;;;24.50;62.70;;;;;;5092569;28;20040;-57
2022/03/21 12:01:58;;;;;;;18.95;14.40;;;25.20;61.70;;;;;;5092947;28;20036;-58
2022/03/21 12:04:24;;;;;;;17.77;14.82;;;25.00;63.40;;;;;;5092640;28;20077;-58
2022/03/21 12:06:50;;;;;;;18.83;14.27;;;25.00;63.30;;;;;;5092713;28;20036;-58
2022/03/21 12:09:16;;;;;;;17.52;14.85;;;25.50;62.40;;;;;;5092469;28;20050;-58
2022/03/21 12:11:42;;;;;;;19.00;15.25;;;25.30;61.20;;;;;;5092201;28;20035;-58
2022/03/21 12:14:23;;;;;;;23.95;14.98;;;25.30;62.10;;;;;;5092500;28;20055;-58
2022/03/21 12:17:11;;;;;;;15.82;13.23;;;26.10;60.70;;;;;;5091769;28;20055;-58
2022/03/21 12:19:47;;;;;;;17.35;15.27;;;25.60;61.80;;;;;;5092506;28;20373;-58
2022/03/21 12:22:33;;;;;;;19.50;14.75;;;25.50;61.00;;;;;;5092551;28;20044;-58
2022/03/21 12:25:09;;;;;;;17.85;14.07;;;25.80;60.50;;;;;;5092353;28;20039;-58
2022/03/21 12:27:34;;;;;;;21.42;15.10;;;25.50;58.80;;;;;;5092118;28;20040;-58
2022/03/21 12:33:06;;;;;;;16.42;14.70;;;25.00;59.40;;;;;;5092338;28;20050;-58
2022/03/21 12:35:32;;;;;;;19.95;14.45;;;24.70;60.60;;;;;;5092119;28;20044;-58
2022/03/21 12:38:21;;;;;;;26.90;14.80;;;24.50;60.40;;;;;;5091914;28;20052;-58
2022/03/21 12:40:47;;;;;;;18.75;14.52;;;25.10;60.20;;;;;;5091281;28;20474;-58
2022/03/21 12:43:15;;;;;;;20.08;14.63;;;25.40;60.40;;;;;;5091794;28;20058;-58
2022/03/21 12:45:44;;;;;;;20.02;13.93;;;25.20;60.00;;;;;;5092236;28;20036;-58
2022/03/21 12:48:11;;;;;;;21.65;14.65;;;25.60;60.90;;;;;;5091895;28;20504;-58
2022/03/21 12:50:38;;;;;;;18.00;14.23;;;26.00;59.20;;;;;;5092174;28;20646;-57
2022/03/21 12:53:12;;;;;;;17.65;14.50;;;25.50;59.70;;;;;;5107777;28;20035;-57
2022/03/21 12:55:41;;;;;;;19.88;14.43;;;24.60;59.10;;;;;;5092042;28;20047;-57
2022/03/21 12:58:09;;;;;;;22.83;15.68;;;25.50;60.40;;;;;;5091984;28;20070;-58
2022/03/21 13:00:41;;;;;;;18.27;13.70;;;25.50;59.40;;;;;;5090574;28;20040;-58
2022/03/21 13:03:12;;;;;;;20.05;12.32;;;25.00;57.70;;;;;;5091888;28;20040;-58